sensor_id;sensor_type;location;lat;lon;timestamp;pressure;altitude;pressure_sealevel;temperature;humidity
50867;BME280;36839;51.946;21.002;2023-09-12T00:02:12;99900.52;;;14.04;100.00
50867;BME280;36839;51.946;21.002;2023-09-12T00:04:39;99897.39;;;14.01;100.00
50867;BME280;36839;51.946;21.002;2023-09-12T00:07:06;99901.61;;;14.00;100.00
50867;BME280;36839;51.946;21.002;2023-09-12T00:09:33;99904.33;;;13.98;100.00
50867;BME280;36839;51.946;21.002;2023-09-12T00:12:04;99899.05;;;13.95;100.00
50867;BME280;36839;51.946;21.002;2023-09-12T00:14:33;99898.02;;;13.97;100.00
50867;BME280;36839;51.946;21.002;2023-09-12T00:16:59;99896.29;;;14.00;100.00
50867;BME280;36839;51.946;21.002;2023-09-12T00:19:29;99897.83;;;14.03;100.00
50867;BME280;36839;51.946;21.002;2023-09-12T00:21:56;99895.75;;;14.04;100.00
50867;BME280;36839;51.946;21.002;2023-09-12T00:24:26;99896.52;;;14.05;100.00
50867;BME280;36839;51.946;21.002;2023-09-12T00:26:53;99895.17;;;14.05;100.00
50867;BME280;36839;51.946;21.002;2023-09-12T00:29:20;99894.14;;;14.02;100.00
50867;BME280;36839;51.946;21.002;2023-09-12T00:31:46;99898.12;;;14.00;100.00
50867;BME280;36839;51.946;21.002;2023-09-12T00:34:17;99896.66;;;13.98;100.00
50867;BME280;36839;51.946;21.002;2023-09-12T00:36:44;99898.78;;;13.94;100.00
50867;BME280;36839;51.946;21.002;2023-09-12T00:39:12;99898.56;;;13.87;100.00
50867;BME280;36839;51.946;21.002;2023-09-12T00:41:41;99901.00;;;13.82;100.00
50867;BME280;36839;51.946;21.002;2023-09-12T00:44:10;99897.13;;;13.81;100.00
50867;BME280;36839;51.946;21.002;2023-09-12T00:46:36;99900.21;;;13.82;100.00
50867;BME280;36839;51.946;21.002;2023-09-12T00:49:06;99902.83;;;13.82;100.00
50867;BME280;36839;51.946;21.002;2023-09-12T00:51:34;99906.28;;;13.81;100.00
50867;BME280;36839;51.946;21.002;2023-09-12T00:54:03;99897.80;;;13.82;100.00
50867;BME280;36839;51.946;21.002;2023-09-12T00:56:30;99901.28;;;13.82;100.00
50867;BME280;36839;51.946;21.002;2023-09-12T00:58:57;99897.35;;;13.81;100.00
50867;BME280;36839;51.946;21.002;2023-09-12T01:01:26;99893.13;;;13.82;100.00
50867;BME280;36839;51.946;21.002;2023-09-12T01:03:55;99891.26;;;13.86;100.00
50867;BME280;36839;51.946;21.002;2023-09-12T01:06:28;99891.70;;;13.89;100.00
50867;BME280;36839;51.946;21.002;2023-09-12T01:08:57;99888.09;;;13.91;100.00
50867;BME280;36839;51.946;21.002;2023-09-12T01:11:39;99890.00;;;13.95;100.00
50867;BME280;36839;51.946;21.002;2023-09-12T01:14:06;99890.96;;;14.00;100.00
50867;BME280;36839;51.946;21.002;2023-09-12T01:16:33;99890.26;;;14.02;100.00
50867;BME280;36839;51.946;21.002;2023-09-12T01:19:01;99890.63;;;14.00;100.00
50867;BME280;36839;51.946;21.002;2023-09-12T01:22:16;99884.34;;;13.98;100.00
50867;BME280;36839;51.946;21.002;2023-09-12T01:25:20;99886.62;;;13.98;100.00
50867;BME280;36839;51.946;21.002;2023-09-12T01:28:00;99885.94;;;13.98;100.00
50867;BME280;36839;51.946;21.002;2023-09-12T01:30:31;99886.85;;;14.00;100.00
50867;BME280;36839;51.946;21.002;2023-09-12T01:33:00;99889.05;;;14.01;100.00
50867;BME280;36839;51.946;21.002;2023-09-12T01:35:27;99888.55;;;14.03;100.00
50867;BME280;36839;51.946;21.002;2023-09-12T01:37:55;99889.77;;;14.03;100.00
50867;BME280;36839;51.946;21.002;2023-09-12T01:40:31;99892.27;;;14.03;100.00
50867;BME280;36839;51.946;21.002;2023-09-12T01:43:08;99892.84;;;14.06;100.00
50867;BME280;36839;51.946;21.002;2023-09-12T01:45:37;99891.86;;;14.10;100.00
50867;BME280;36839;51.946;21.002;2023-09-12T01:48:06;99893.17;;;14.11;100.00
50867;BME280;36839;51.946;21.002;2023-09-12T01:50:34;99888.55;;;14.12;100.00
50867;BME280;36839;51.946;21.002;2023-09-12T01:53:03;99890.05;;;14.13;100.00
50867;BME280;36839;51.946;21.002;2023-09-12T01:55:30;99885.36;;;14.11;100.00
50867;BME280;36839;51.946;21.002;2023-09-12T01:57:58;99884.05;;;14.09;100.00
50867;BME280;36839;51.946;21.002;2023-09-12T02:00:25;99883.08;;;14.07;100.00
50867;BME280;36839;51.946;21.002;2023-09-12T02:02:56;99885.41;;;14.04;100.00
50867;BME280;36839;51.946;21.002;2023-09-12T02:05:24;99886.58;;;14.00;100.00
50867;BME280;36839;51.946;21.002;2023-09-12T02:07:52;99885.57;;;13.97;100.00
50867;BME280;36839;51.946;21.002;2023-09-12T02:10:19;99884.17;;;13.95;100.00
50867;BME280;36839;51.946;21.002;2023-09-12T02:12:48;99887.41;;;13.93;100.00
50867;BME280;36839;51.946;21.002;2023-09-12T02:15:16;99887.64;;;13.92;100.00
50867;BME280;36839;51.946;21.002;2023-09-12T02:17:43;99882.36;;;13.93;100.00
50867;BME280;36839;51.946;21.002;2023-09-12T02:20:11;99883.04;;;13.92;100.00
50867;BME280;36839;51.946;21.002;2023-09-12T02:22:38;99881.55;;;13.92;100.00
50867;BME280;36839;51.946;21.002;2023-09-12T02:25:09;99877.19;;;13.86;100.00
50867;BME280;36839;51.946;21.002;2023-09-12T02:27:35;99878.69;;;13.82;100.00
50867;BME280;36839;51.946;21.002;2023-09-12T02:30:07;99879.64;;;13.78;100.00
50867;BME280;36839;51.946;21.002;2023-09-12T02:32:44;99879.77;;;13.77;100.00
50867;BME280;36839;51.946;21.002;2023-09-12T02:35:11;99880.46;;;13.79;100.00
50867;BME280;36839;51.946;21.002;2023-09-12T02:37:38;99881.40;;;13.79;100.00
50867;BME280;36839;51.946;21.002;2023-09-12T02:40:06;99881.09;;;13.78;100.00
50867;BME280;36839;51.946;21.002;2023-09-12T02:42:33;99882.20;;;13.78;100.00
50867;BME280;36839;51.946;21.002;2023-09-12T02:45:00;99884.42;;;13.78;100.00
50867;BME280;36839;51.946;21.002;2023-09-12T02:47:26;99878.11;;;13.77;100.00
50867;BME280;36839;51.946;21.002;2023-09-12T02:49:53;99881.16;;;13.77;100.00
50867;BME280;36839;51.946;21.002;2023-09-12T02:52:20;99880.70;;;13.74;100.00
50867;BME280;36839;51.946;21.002;2023-09-12T02:54:56;99881.19;;;13.73;100.00
50867;BME280;36839;51.946;21.002;2023-09-12T02:57:25;99881.48;;;13.73;100.00
50867;BME280;36839;51.946;21.002;2023-09-12T02:59:52;99881.09;;;13.74;100.00
50867;BME280;36839;51.946;21.002;2023-09-12T03:02:20;99887.02;;;13.74;100.00
50867;BME280;36839;51.946;21.002;2023-09-12T03:04:56;99884.81;;;13.74;100.00
50867;BME280;36839;51.946;21.002;2023-09-12T03:07:24;99883.26;;;13.75;100.00
50867;BME280;36839;51.946;21.002;2023-09-12T03:09:53;99884.88;;;13.74;100.00
50867;BME280;36839;51.946;21.002;2023-09-12T03:12:19;99884.14;;;13.70;100.00
50867;BME280;36839;51.946;21.002;2023-09-12T03:14:46;99885.05;;;13.64;100.00
50867;BME280;36839;51.946;21.002;2023-09-12T03:17:15;99887.85;;;13.55;100.00
50867;BME280;36839;51.946;21.002;2023-09-12T03:19:43;99885.34;;;13.48;100.00
50867;BME280;36839;51.946;21.002;2023-09-12T03:22:10;99889.02;;;13.45;100.00
50867;BME280;36839;51.946;21.002;2023-09-12T03:24:39;99890.05;;;13.43;100.00
50867;BME280;36839;51.946;21.002;2023-09-12T03:27:07;99888.59;;;13.45;100.00
50867;BME280;36839;51.946;21.002;2023-09-12T03:29:35;99890.56;;;13.48;100.00
50867;BME280;36839;51.946;21.002;2023-09-12T03:32:03;99890.94;;;13.48;100.00
50867;BME280;36839;51.946;21.002;2023-09-12T03:34:33;99893.98;;;13.49;100.00
50867;BME280;36839;51.946;21.002;2023-09-12T03:37:02;99892.41;;;13.49;100.00
50867;BME280;36839;51.946;21.002;2023-09-12T03:39:29;99898.77;;;13.48;100.00
50867;BME280;36839;51.946;21.002;2023-09-12T03:41:55;99899.77;;;13.48;100.00
50867;BME280;36839;51.946;21.002;2023-09-12T03:44:22;99899.07;;;13.47;100.00
50867;BME280;36839;51.946;21.002;2023-09-12T03:46:48;99901.89;;;13.48;100.00
50867;BME280;36839;51.946;21.002;2023-09-12T03:49:15;99898.70;;;13.43;100.00
50867;BME280;36839;51.946;21.002;2023-09-12T03:51:43;99902.23;;;13.38;100.00
50867;BME280;36839;51.946;21.002;2023-09-12T03:54:09;99898.64;;;13.27;100.00
50867;BME280;36839;51.946;21.002;2023-09-12T03:56:37;99901.73;;;13.19;100.00
50867;BME280;36839;51.946;21.002;2023-09-12T03:59:04;99903.77;;;13.17;100.00
50867;BME280;36839;51.946;21.002;2023-09-12T04:01:31;99906.00;;;13.18;100.00
50867;BME280;36839;51.946;21.002;2023-09-12T04:03:58;99906.27;;;13.18;100.00
50867;BME280;36839;51.946;21.002;2023-09-12T04:06:30;99910.70;;;13.19;100.00
50867;BME280;36839;51.946;21.002;2023-09-12T04:08:58;99908.98;;;13.18;100.00
50867;BME280;36839;51.946;21.002;2023-09-12T04:11:25;99906.55;;;13.17;100.00
50867;BME280;36839;51.946;21.002;2023-09-12T04:13:56;99905.55;;;13.17;100.00
50867;BME280;36839;51.946;21.002;2023-09-12T04:16:23;99904.99;;;13.16;100.00
50867;BME280;36839;51.946;21.002;2023-09-12T04:18:52;99907.17;;;13.15;100.00
50867;BME280;36839;51.946;21.002;2023-09-12T04:21:22;99908.52;;;13.13;100.00
50867;BME280;36839;51.946;21.002;2023-09-12T04:23:53;99906.18;;;13.10;100.00
50867;BME280;36839;51.946;21.002;2023-09-12T04:26:19;99909.71;;;13.07;100.00
50867;BME280;36839;51.946;21.002;2023-09-12T04:28:48;99909.23;;;13.05;100.00
50867;BME280;36839;51.946;21.002;2023-09-12T04:31:15;99907.99;;;13.02;100.00
50867;BME280;36839;51.946;21.002;2023-09-12T04:33:42;99913.95;;;13.00;100.00
50867;BME280;36839;51.946;21.002;2023-09-12T04:36:08;99914.90;;;13.00;100.00
50867;BME280;36839;51.946;21.002;2023-09-12T04:38:36;99915.08;;;12.99;100.00
50867;BME280;36839;51.946;21.002;2023-09-12T04:41:13;99908.65;;;12.99;100.00
50867;BME280;36839;51.946;21.002;2023-09-12T04:43:46;99910.52;;;13.01;100.00
50867;BME280;36839;51.946;21.002;2023-09-12T04:46:13;99913.07;;;13.00;100.00
50867;BME280;36839;51.946;21.002;2023-09-12T04:48:42;99911.12;;;13.00;100.00
50867;BME280;36839;51.946;21.002;2023-09-12T04:51:12;99913.80;;;13.04;100.00
50867;BME280;36839;51.946;21.002;2023-09-12T04:53:39;99913.34;;;13.10;100.00
50867;BME280;36839;51.946;21.002;2023-09-12T04:56:06;99909.60;;;13.18;100.00
50867;BME280;36839;51.946;21.002;2023-09-12T04:58:36;99911.30;;;13.24;100.00
50867;BME280;36839;51.946;21.002;2023-09-12T05:01:03;99916.02;;;13.30;100.00
50867;BME280;36839;51.946;21.002;2023-09-12T05:03:30;99915.52;;;13.35;100.00
50867;BME280;36839;51.946;21.002;2023-09-12T05:05:58;99916.64;;;13.41;100.00
50867;BME280;36839;51.946;21.002;2023-09-12T05:08:26;99919.42;;;13.50;100.00
50867;BME280;36839;51.946;21.002;2023-09-12T05:10:53;99925.04;;;13.59;100.00
50867;BME280;36839;51.946;21.002;2023-09-12T05:13:20;99926.48;;;13.66;100.00
50867;BME280;36839;51.946;21.002;2023-09-12T05:15:47;99925.36;;;13.75;100.00
50867;BME280;36839;51.946;21.002;2023-09-12T05:18:14;99923.36;;;13.83;100.00
50867;BME280;36839;51.946;21.002;2023-09-12T05:20:40;99929.52;;;13.95;100.00
50867;BME280;36839;51.946;21.002;2023-09-12T05:23:11;99930.63;;;14.07;100.00
50867;BME280;36839;51.946;21.002;2023-09-12T05:25:40;99927.73;;;14.18;100.00
50867;BME280;36839;51.946;21.002;2023-09-12T05:28:07;99931.41;;;14.28;100.00
50867;BME280;36839;51.946;21.002;2023-09-12T05:30:36;99928.73;;;14.40;100.00
50867;BME280;36839;51.946;21.002;2023-09-12T05:33:03;99931.21;;;14.52;100.00
50867;BME280;36839;51.946;21.002;2023-09-12T05:35:31;99931.39;;;14.65;100.00
50867;BME280;36839;51.946;21.002;2023-09-12T05:38:07;99932.58;;;14.80;100.00
50867;BME280;36839;51.946;21.002;2023-09-12T05:40:34;99932.21;;;14.96;100.00
50867;BME280;36839;51.946;21.002;2023-09-12T05:43:01;99933.07;;;15.14;100.00
50867;BME280;36839;51.946;21.002;2023-09-12T05:45:28;99933.48;;;15.29;100.00
50867;BME280;36839;51.946;21.002;2023-09-12T05:47:57;99935.42;;;15.43;100.00
50867;BME280;36839;51.946;21.002;2023-09-12T05:50:23;99939.48;;;15.57;100.00
50867;BME280;36839;51.946;21.002;2023-09-12T05:52:50;99935.94;;;15.71;100.00
50867;BME280;36839;51.946;21.002;2023-09-12T05:55:18;99935.48;;;15.84;100.00
50867;BME280;36839;51.946;21.002;2023-09-12T05:57:45;99936.62;;;15.97;100.00
50867;BME280;36839;51.946;21.002;2023-09-12T06:00:14;99935.70;;;16.11;100.00
50867;BME280;36839;51.946;21.002;2023-09-12T06:02:46;99937.66;;;16.25;100.00
50867;BME280;36839;51.946;21.002;2023-09-12T06:05:17;99936.37;;;16.39;100.00
50867;BME280;36839;51.946;21.002;2023-09-12T06:07:45;99938.22;;;16.54;100.00
50867;BME280;36839;51.946;21.002;2023-09-12T06:10:13;99936.56;;;16.68;100.00
50867;BME280;36839;51.946;21.002;2023-09-12T06:12:40;99939.90;;;16.81;100.00
50867;BME280;36839;51.946;21.002;2023-09-12T06:15:08;99942.84;;;16.95;100.00
50867;BME280;36839;51.946;21.002;2023-09-12T06:17:35;99941.73;;;17.07;100.00
50867;BME280;36839;51.946;21.002;2023-09-12T06:20:06;99944.69;;;17.22;100.00
50867;BME280;36839;51.946;21.002;2023-09-12T06:22:33;99946.98;;;17.37;100.00
50867;BME280;36839;51.946;21.002;2023-09-12T06:25:07;99947.11;;;17.54;100.00
50867;BME280;36839;51.946;21.002;2023-09-12T06:27:33;99949.71;;;17.69;100.00
50867;BME280;36839;51.946;21.002;2023-09-12T06:30:01;99949.34;;;17.86;100.00
50867;BME280;36839;51.946;21.002;2023-09-12T06:32:29;99951.56;;;18.01;100.00
50867;BME280;36839;51.946;21.002;2023-09-12T06:34:57;99955.59;;;18.15;100.00
50867;BME280;36839;51.946;21.002;2023-09-12T06:37:25;99957.64;;;18.30;100.00
50867;BME280;36839;51.946;21.002;2023-09-12T06:39:53;99959.09;;;18.42;100.00
50867;BME280;36839;51.946;21.002;2023-09-12T06:42:19;99958.30;;;18.54;100.00
50867;BME280;36839;51.946;21.002;2023-09-12T06:44:46;99952.81;;;18.65;100.00
50867;BME280;36839;51.946;21.002;2023-09-12T06:47:13;99952.98;;;18.75;100.00
50867;BME280;36839;51.946;21.002;2023-09-12T06:49:40;99950.95;;;18.84;100.00
50867;BME280;36839;51.946;21.002;2023-09-12T06:52:07;99948.04;;;18.93;100.00
50867;BME280;36839;51.946;21.002;2023-09-12T06:54:33;99949.63;;;19.03;100.00
50867;BME280;36839;51.946;21.002;2023-09-12T06:57:00;99955.08;;;19.17;100.00
50867;BME280;36839;51.946;21.002;2023-09-12T06:59:27;99952.30;;;19.32;100.00
50867;BME280;36839;51.946;21.002;2023-09-12T07:01:55;99953.95;;;19.48;100.00
50867;BME280;36839;51.946;21.002;2023-09-12T07:04:24;99953.23;;;19.63;100.00
50867;BME280;36839;51.946;21.002;2023-09-12T07:06:53;99956.91;;;19.81;100.00
50867;BME280;36839;51.946;21.002;2023-09-12T07:09:20;99954.20;;;19.97;100.00
50867;BME280;36839;51.946;21.002;2023-09-12T07:11:48;99951.20;;;20.12;100.00
50867;BME280;36839;51.946;21.002;2023-09-12T07:14:14;99952.06;;;20.24;100.00
50867;BME280;36839;51.946;21.002;2023-09-12T07:16:43;99951.40;;;20.36;100.00
50867;BME280;36839;51.946;21.002;2023-09-12T07:19:10;99945.98;;;20.49;100.00
50867;BME280;36839;51.946;21.002;2023-09-12T07:21:37;99946.54;;;20.61;100.00
50867;BME280;36839;51.946;21.002;2023-09-12T07:24:03;99947.68;;;20.73;100.00
50867;BME280;36839;51.946;21.002;2023-09-12T07:26:31;99945.80;;;20.85;100.00
50867;BME280;36839;51.946;21.002;2023-09-12T07:28:58;99944.56;;;21.00;100.00
50867;BME280;36839;51.946;21.002;2023-09-12T07:31:29;99945.85;;;21.18;100.00
50867;BME280;36839;51.946;21.002;2023-09-12T07:33:59;99947.91;;;21.35;100.00
50867;BME280;36839;51.946;21.002;2023-09-12T07:36:25;99943.80;;;21.49;100.00
50867;BME280;36839;51.946;21.002;2023-09-12T07:38:52;99943.91;;;21.62;100.00
50867;BME280;36839;51.946;21.002;2023-09-12T07:41:25;99945.36;;;21.74;100.00
50867;BME280;36839;51.946;21.002;2023-09-12T07:43:52;99940.83;;;21.88;100.00
50867;BME280;36839;51.946;21.002;2023-09-12T07:46:18;99944.69;;;22.03;100.00
50867;BME280;36839;51.946;21.002;2023-09-12T07:48:45;99940.38;;;22.16;100.00
50867;BME280;36839;51.946;21.002;2023-09-12T07:51:13;99936.55;;;22.25;100.00
50867;BME280;36839;51.946;21.002;2023-09-12T07:53:48;99935.27;;;22.33;100.00
50867;BME280;36839;51.946;21.002;2023-09-12T07:56:18;99938.95;;;22.46;100.00
50867;BME280;36839;51.946;21.002;2023-09-12T07:58:45;99938.32;;;22.60;100.00
50867;BME280;36839;51.946;21.002;2023-09-12T08:01:11;99940.59;;;22.72;100.00
50867;BME280;36839;51.946;21.002;2023-09-12T08:03:41;99937.10;;;22.83;100.00
50867;BME280;36839;51.946;21.002;2023-09-12T08:06:09;99939.73;;;22.95;100.00
50867;BME280;36839;51.946;21.002;2023-09-12T08:08:36;99938.81;;;23.09;100.00
50867;BME280;36839;51.946;21.002;2023-09-12T08:11:03;99939.04;;;23.23;100.00
50867;BME280;36839;51.946;21.002;2023-09-12T08:13:30;99940.17;;;23.36;100.00
50867;BME280;36839;51.946;21.002;2023-09-12T08:15:57;99938.65;;;23.49;100.00
50867;BME280;36839;51.946;21.002;2023-09-12T08:18:29;99940.24;;;23.60;100.00
50867;BME280;36839;51.946;21.002;2023-09-12T08:20:58;99935.33;;;23.73;100.00
50867;BME280;36839;51.946;21.002;2023-09-12T08:23:28;99936.95;;;23.87;100.00
50867;BME280;36839;51.946;21.002;2023-09-12T08:25:55;99939.25;;;24.02;99.82
50867;BME280;36839;51.946;21.002;2023-09-12T08:28:22;99933.94;;;24.17;99.49
50867;BME280;36839;51.946;21.002;2023-09-12T08:30:54;99936.77;;;24.35;99.57
50867;BME280;36839;51.946;21.002;2023-09-12T08:33:22;99937.78;;;24.51;100.00
50867;BME280;36839;51.946;21.002;2023-09-12T08:35:50;99938.89;;;24.66;98.99
50867;BME280;36839;51.946;21.002;2023-09-12T08:38:17;99938.67;;;24.78;97.11
50867;BME280;36839;51.946;21.002;2023-09-12T08:40:49;99937.02;;;24.94;96.44
50867;BME280;36839;51.946;21.002;2023-09-12T08:43:23;99938.33;;;25.05;94.16
50867;BME280;36839;51.946;21.002;2023-09-12T08:45:50;99940.92;;;25.19;94.43
50867;BME280;36839;51.946;21.002;2023-09-12T08:48:18;99938.59;;;25.32;92.25
50867;BME280;36839;51.946;21.002;2023-09-12T08:50:49;99937.30;;;25.46;90.71
50867;BME280;36839;51.946;21.002;2023-09-12T08:53:17;99935.22;;;25.57;87.93
50867;BME280;36839;51.946;21.002;2023-09-12T08:55:47;99938.11;;;25.65;86.59
50867;BME280;36839;51.946;21.002;2023-09-12T08:58:18;99935.81;;;25.77;86.33
50867;BME280;36839;51.946;21.002;2023-09-12T09:00:49;99936.85;;;25.91;84.59
50867;BME280;36839;51.946;21.002;2023-09-12T09:03:23;99935.95;;;26.07;83.49
50867;BME280;36839;51.946;21.002;2023-09-12T09:05:51;99934.84;;;26.19;80.95
50867;BME280;36839;51.946;21.002;2023-09-12T09:08:20;99933.88;;;26.31;78.87
50867;BME280;36839;51.946;21.002;2023-09-12T09:10:58;99935.67;;;26.42;76.30
50867;BME280;36839;51.946;21.002;2023-09-12T09:13:25;99935.27;;;26.55;76.42
50867;BME280;36839;51.946;21.002;2023-09-12T09:16:16;99933.94;;;26.64;71.88
50867;BME280;36839;51.946;21.002;2023-09-12T09:18:52;99933.97;;;26.73;71.86
50867;BME280;36839;51.946;21.002;2023-09-12T09:21:20;99931.41;;;26.83;69.16
50867;BME280;36839;51.946;21.002;2023-09-12T09:23:57;99928.18;;;26.91;67.27
50867;BME280;36839;51.946;21.002;2023-09-12T09:26:44;99930.15;;;26.93;64.80
50867;BME280;36839;51.946;21.002;2023-09-12T09:29:16;99925.13;;;26.93;64.07
50867;BME280;36839;51.946;21.002;2023-09-12T09:31:46;99923.02;;;27.00;65.99
50867;BME280;36839;51.946;21.002;2023-09-12T09:34:19;99925.63;;;27.15;63.41
50867;BME280;36839;51.946;21.002;2023-09-12T09:36:52;99923.79;;;27.26;60.41
50867;BME280;36839;51.946;21.002;2023-09-12T09:39:24;99923.00;;;27.36;60.67
50867;BME280;36839;51.946;21.002;2023-09-12T09:41:55;99924.63;;;27.46;60.47
50867;BME280;36839;51.946;21.002;2023-09-12T09:44:23;99923.23;;;27.54;59.94
50867;BME280;36839;51.946;21.002;2023-09-12T09:46:59;99926.14;;;27.61;59.75
50867;BME280;36839;51.946;21.002;2023-09-12T09:49:34;99923.80;;;27.69;58.05
50867;BME280;36839;51.946;21.002;2023-09-12T09:52:05;99927.16;;;27.75;56.98
50867;BME280;36839;51.946;21.002;2023-09-12T09:54:32;99920.89;;;27.81;55.37
50867;BME280;36839;51.946;21.002;2023-09-12T09:57:04;99921.75;;;27.87;52.90
50867;BME280;36839;51.946;21.002;2023-09-12T09:59:31;99923.83;;;27.97;52.98
50867;BME280;36839;51.946;21.002;2023-09-12T10:01:59;99919.23;;;28.01;51.60
50867;BME280;36839;51.946;21.002;2023-09-12T10:04:28;99919.85;;;28.07;52.43
50867;BME280;36839;51.946;21.002;2023-09-12T10:07:08;99918.28;;;28.17;50.90
50867;BME280;36839;51.946;21.002;2023-09-12T10:09:36;99915.40;;;28.23;50.49
50867;BME280;36839;51.946;21.002;2023-09-12T10:12:04;99911.34;;;28.33;49.94
50867;BME280;36839;51.946;21.002;2023-09-12T10:14:31;99911.37;;;28.39;49.85
50867;BME280;36839;51.946;21.002;2023-09-12T10:17:01;99911.09;;;28.51;49.52
50867;BME280;36839;51.946;21.002;2023-09-12T10:19:38;99912.94;;;28.63;46.07
50867;BME280;36839;51.946;21.002;2023-09-12T10:22:17;99909.40;;;28.71;46.17
50867;BME280;36839;51.946;21.002;2023-09-12T10:24:49;99911.02;;;28.72;46.56
50867;BME280;36839;51.946;21.002;2023-09-12T10:27:19;99910.79;;;28.76;46.11
50867;BME280;36839;51.946;21.002;2023-09-12T10:29:49;99907.02;;;28.87;46.05
50867;BME280;36839;51.946;21.002;2023-09-12T10:32:20;99902.27;;;29.02;46.25
50867;BME280;36839;51.946;21.002;2023-09-12T10:34:48;99907.25;;;29.15;45.49
50867;BME280;36839;51.946;21.002;2023-09-12T10:37:16;99906.46;;;29.20;44.42
50867;BME280;36839;51.946;21.002;2023-09-12T10:39:46;99904.98;;;29.21;45.00
50867;BME280;36839;51.946;21.002;2023-09-12T10:42:16;99903.44;;;29.26;44.67
50867;BME280;36839;51.946;21.002;2023-09-12T10:44:55;99903.45;;;29.33;44.58
50867;BME280;36839;51.946;21.002;2023-09-12T10:47:25;99900.95;;;29.39;43.33
50867;BME280;36839;51.946;21.002;2023-09-12T10:50:01;99898.99;;;29.40;43.35
50867;BME280;36839;51.946;21.002;2023-09-12T10:52:31;99892.73;;;29.38;43.04
50867;BME280;36839;51.946;21.002;2023-09-12T10:55:04;99894.12;;;29.38;43.35
50867;BME280;36839;51.946;21.002;2023-09-12T10:57:34;99892.16;;;29.42;43.34
50867;BME280;36839;51.946;21.002;2023-09-12T11:00:11;99889.19;;;29.49;43.74
50867;BME280;36839;51.946;21.002;2023-09-12T11:02:40;99884.69;;;29.46;43.77
50867;BME280;36839;51.946;21.002;2023-09-12T11:07:58;99888.98;;;29.34;44.09
50867;BME280;36839;51.946;21.002;2023-09-12T11:10:27;99887.70;;;29.46;44.28
50867;BME280;36839;51.946;21.002;2023-09-12T11:12:58;99885.28;;;29.54;42.60
50867;BME280;36839;51.946;21.002;2023-09-12T11:15:33;99887.55;;;29.58;43.04
50867;BME280;36839;51.946;21.002;2023-09-12T11:18:03;99885.92;;;29.62;43.07
50867;BME280;36839;51.946;21.002;2023-09-12T11:20:59;99883.90;;;29.56;43.34
50867;BME280;36839;51.946;21.002;2023-09-12T11:23:30;99884.39;;;29.63;44.05
50867;BME280;36839;51.946;21.002;2023-09-12T11:26:08;99886.56;;;29.80;43.99
50867;BME280;36839;51.946;21.002;2023-09-12T11:28:56;99884.58;;;29.97;43.89
50867;BME280;36839;51.946;21.002;2023-09-12T11:31:35;99887.24;;;30.15;43.87
50867;BME280;36839;51.946;21.002;2023-09-12T11:34:09;99891.77;;;30.27;43.69
50867;BME280;36839;51.946;21.002;2023-09-12T11:36:46;99890.17;;;30.16;43.40
50867;BME280;36839;51.946;21.002;2023-09-12T11:39:44;99888.89;;;29.94;43.12
50867;BME280;36839;51.946;21.002;2023-09-12T11:42:12;99888.92;;;29.65;44.32
50867;BME280;36839;51.946;21.002;2023-09-12T11:44:42;99882.32;;;29.39;44.41
50867;BME280;36839;51.946;21.002;2023-09-12T11:47:14;99887.35;;;29.23;45.04
50867;BME280;36839;51.946;21.002;2023-09-12T11:49:48;99884.17;;;29.04;44.87
50867;BME280;36839;51.946;21.002;2023-09-12T11:52:16;99884.65;;;29.04;44.98
50867;BME280;36839;51.946;21.002;2023-09-12T11:54:44;99884.17;;;29.04;44.77
50867;BME280;36839;51.946;21.002;2023-09-12T11:57:15;99878.75;;;29.21;45.44
50867;BME280;36839;51.946;21.002;2023-09-12T11:59:45;99877.38;;;29.42;45.05
50867;BME280;36839;51.946;21.002;2023-09-12T12:02:17;99874.23;;;29.53;44.33
50867;BME280;36839;51.946;21.002;2023-09-12T12:04:45;99874.71;;;29.59;45.10
50867;BME280;36839;51.946;21.002;2023-09-12T12:07:15;99879.02;;;29.56;45.26
50867;BME280;36839;51.946;21.002;2023-09-12T12:09:44;99877.30;;;29.48;44.50
50867;BME280;36839;51.946;21.002;2023-09-12T12:12:14;99879.64;;;29.38;44.94
50867;BME280;36839;51.946;21.002;2023-09-12T12:14:42;99877.77;;;29.26;44.87
50867;BME280;36839;51.946;21.002;2023-09-12T12:17:10;99876.30;;;29.21;44.24
50867;BME280;36839;51.946;21.002;2023-09-12T12:19:38;99875.73;;;29.29;45.60
50867;BME280;36839;51.946;21.002;2023-09-12T12:22:08;99871.51;;;29.38;44.40
50867;BME280;36839;51.946;21.002;2023-09-12T12:24:50;99876.41;;;29.60;44.59
50867;BME280;36839;51.946;21.002;2023-09-12T12:27:17;99872.89;;;29.81;42.95
50867;BME280;36839;51.946;21.002;2023-09-12T12:29:45;99866.19;;;29.96;41.83
50867;BME280;36839;51.946;21.002;2023-09-12T12:32:15;99866.09;;;30.00;40.78
50867;BME280;36839;51.946;21.002;2023-09-12T12:34:47;99866.01;;;30.08;41.07
50867;BME280;36839;51.946;21.002;2023-09-12T12:37:17;99862.92;;;30.34;41.04
50867;BME280;36839;51.946;21.002;2023-09-12T12:39:53;99863.20;;;30.46;40.11
50867;BME280;36839;51.946;21.002;2023-09-12T12:42:19;99859.05;;;30.43;40.19
50867;BME280;36839;51.946;21.002;2023-09-12T12:44:55;99856.98;;;30.49;40.64
50867;BME280;36839;51.946;21.002;2023-09-12T12:47:21;99861.33;;;30.45;40.55
50867;BME280;36839;51.946;21.002;2023-09-12T12:49:52;99864.80;;;30.34;40.35
50867;BME280;36839;51.946;21.002;2023-09-12T12:52:26;99866.63;;;30.21;40.96
50867;BME280;36839;51.946;21.002;2023-09-12T12:54:52;99863.25;;;30.07;41.19
50867;BME280;36839;51.946;21.002;2023-09-12T12:57:23;99863.16;;;30.12;40.82
50867;BME280;36839;51.946;21.002;2023-09-12T12:59:52;99860.94;;;30.19;40.11